Time;durP1;ratioP1;P1;durP2;ratioP2;P2;SDS_P1;SDS_P2;PMS_P1;PMS_P2;Temp;Humidity;BMP_temperature;BMP_pressure;BME280_temperature;BME280_humidity;BME280_pressure;Samples;Min_cycle;Max_cycle;Signal;HPM_P1;HPM_P2
2022/12/30 00:01:32;;;;;;;112.13;59.25;;;;;;;;;;5052622;28;20041;-68
2022/12/30 00:03:59;;;;;;;111.90;57.05;;;;;;;;;;5052475;28;20055;-68
2022/12/30 00:06:27;;;;;;;105.78;55.47;;;;;;;;;;5052346;28;20040;-68
2022/12/30 00:08:56;;;;;;;109.22;56.35;;;;;;;;;;5052342;28;20041;-68
2022/12/30 00:11:24;;;;;;;102.68;54.85;;;;;;;;;;5052065;28;20071;-68
2022/12/30 00:33:06;;;;;;;112.15;56.63;;;;;;;;;;5052295;28;20517;-68
2022/12/30 00:33:56;;;;;;;106.47;53.72;;;;;;;;;;5050726;28;20092;-68
2022/12/30 00:36:25;;;;;;;106.32;53.53;;;;;;;;;;5052164;28;20118;-68
2022/12/30 00:38:53;;;;;;;100.93;52.97;;;;;;;;;;5052110;28;20418;-68
2022/12/30 00:44:07;;;;;;;110.03;54.70;;;;;;;;;;5052125;28;20037;-68
2022/12/30 00:46:35;;;;;;;104.95;53.38;;;;;;;;;;5055688;28;20502;-68
2022/12/30 00:57:20;;;;;;;;;;;;;;;;;;5056294;28;20044;-68
2022/12/30 00:59:48;;;;;;;104.05;52.15;;;;;;;;;;5055743;28;19921;-68
2022/12/30 01:02:15;;;;;;;100.88;51.83;;;;;;;;;;5055627;28;20111;-68
2022/12/30 01:04:43;;;;;;;101.00;51.60;;;;;;;;;;5055685;28;20045;-68
2022/12/30 01:07:11;;;;;;;139.38;71.05;;;;;;;;;;5055588;28;20556;-68
2022/12/30 01:09:38;;;;;;;126.25;61.72;;;;;;;;;;5054268;28;20045;-68
2022/12/30 01:12:09;;;;;;;119.45;60.30;;;;;;;;;;5055586;28;20048;-68
2022/12/30 01:14:38;;;;;;;114.47;59.10;;;;;;;;;;5055522;28;20040;-68
2022/12/30 01:17:06;;;;;;;120.20;59.78;;;;;;;;;;5055578;28;20037;-68
2022/12/30 01:19:33;;;;;;;109.65;56.72;;;;;;;;;;5055402;28;20048;-68
2022/12/30 01:22:02;;;;;;;110.15;56.47;;;;;;;;;;5053840;28;20048;-68
2022/12/30 01:24:29;;;;;;;107.80;55.90;;;;;;;;;;5055254;28;20186;-68
2022/12/30 01:26:57;;;;;;;102.70;52.60;;;;;;;;;;5055154;28;20099;-68
2022/12/30 01:29:28;;;;;;;106.50;54.50;;;;;;;;;;5055216;28;20037;-68
2022/12/30 01:31:57;;;;;;;99.47;52.83;;;;;;;;;;5055177;28;20045;-68
2022/12/30 01:34:25;;;;;;;102.63;54.88;;;;;;;;;;5054930;28;20049;-68
2022/12/30 01:36:53;;;;;;;103.03;52.35;;;;;;;;;;5055359;28;20045;-68
2022/12/30 01:39:20;;;;;;;106.88;53.38;;;;;;;;;;5054925;28;20044;-68
2022/12/30 01:41:48;;;;;;;103.85;54.28;;;;;;;;;;5054922;28;20120;-68
2022/12/30 01:44:34;;;;;;;106.55;52.92;;;;;;;;;;5053854;28;20098;-69
2022/12/30 01:47:02;;;;;;;99.38;51.85;;;;;;;;;;5054878;28;20048;-68
2022/12/30 01:49:30;;;;;;;102.85;51.40;;;;;;;;;;5054859;28;20045;-68
2022/12/30 01:51:58;;;;;;;105.53;55.08;;;;;;;;;;5055056;28;20040;-68
2022/12/30 01:54:25;;;;;;;100.32;54.75;;;;;;;;;;5054615;28;20044;-68
2022/12/30 01:56:53;;;;;;;104.68;53.53;;;;;;;;;;5053393;28;20062;-68
2022/12/30 01:59:21;;;;;;;99.00;53.55;;;;;;;;;;5054888;28;20091;-68
2022/12/30 02:01:49;;;;;;;97.90;51.38;;;;;;;;;;5054660;28;20453;-68
2022/12/30 02:04:19;;;;;;;97.95;50.03;;;;;;;;;;5053282;28;20040;-68
2022/12/30 02:06:46;;;;;;;99.28;50.13;;;;;;;;;;5054451;28;20081;-68
2022/12/30 02:09:14;;;;;;;95.50;47.90;;;;;;;;;;5054322;28;20090;-68
2022/12/30 02:11:41;;;;;;;94.40;50.55;;;;;;;;;;5053135;28;20051;-68
2022/12/30 02:14:08;;;;;;;94.82;48.70;;;;;;;;;;5054209;28;20029;-69
2022/12/30 02:16:36;;;;;;;92.18;50.20;;;;;;;;;;5052949;28;20053;-69
2022/12/30 02:19:27;;;;;;;99.28;48.17;;;;;;;;;;5054207;28;20602;-69
2022/12/30 02:22:13;;;;;;;92.03;47.13;;;;;;;;;;5054256;28;20082;-69
2022/12/30 02:24:43;;;;;;;93.55;47.42;;;;;;;;;;5054032;28;20045;-69
2022/12/30 02:27:17;;;;;;;88.97;47.53;;;;;;;;;;5052990;28;20509;-68
2022/12/30 02:29:56;;;;;;;85.55;46.83;;;;;;;;;;5053427;28;20041;-69
2022/12/30 02:32:33;;;;;;;88.57;47.20;;;;;;;;;;5053802;28;20506;-69
2022/12/30 02:35:07;;;;;;;97.28;48.97;;;;;;;;;;5053942;28;20045;-69
2022/12/30 02:38:04;;;;;;;88.80;48.45;;;;;;;;;;5053902;28;20045;-69
2022/12/30 02:46:13;;;;;;;89.75;47.92;;;;;;;;;;5053724;28;20044;-68
2022/12/30 02:48:43;;;;;;;91.95;46.75;;;;;;;;;;5053797;28;20068;-69
2022/12/30 02:53:56;;;;;;;100.13;48.13;;;;;;;;;;5053609;28;20041;-69
2022/12/30 02:56:24;;;;;;;91.45;48.10;;;;;;;;;;5053571;28;20037;-69
2022/12/30 03:03:56;;;;;;;92.30;48.60;;;;;;;;;;5053515;28;20131;-69
2022/12/30 03:04:44;;;;;;;87.97;44.13;;;;;;;;;;5053328;28;20123;-69
2022/12/30 03:07:36;;;;;;;85.45;44.22;;;;;;;;;;5053004;28;20036;-69
2022/12/30 03:13:14;;;;;;;87.13;44.30;;;;;;;;;;5053173;28;20047;-68
2022/12/30 03:16:00;;;;;;;82.68;43.65;;;;;;;;;;5053199;28;20412;-68
2022/12/30 03:18:29;;;;;;;86.78;46.25;;;;;;;;;;5053098;28;20091;-68
2022/12/30 03:20:57;;;;;;;86.95;45.78;;;;;;;;;;5051840;28;20037;-69
2022/12/30 03:28:59;;;;;;;83.30;45.38;;;;;;;;;;5052955;28;20524;-69
2022/12/30 03:31:27;;;;;;;84.30;46.25;;;;;;;;;;5052707;28;20503;-69
2022/12/30 03:33:55;;;;;;;87.03;45.33;;;;;;;;;;5052692;28;20099;-68
2022/12/30 03:36:22;;;;;;;83.88;45.55;;;;;;;;;;5052653;28;20446;-69
2022/12/30 03:38:59;;;;;;;86.82;45.75;;;;;;;;;;5052866;28;20082;-68
2022/12/30 03:41:27;;;;;;;87.63;47.50;;;;;;;;;;5052737;28;20040;-69
2022/12/30 03:43:56;;;;;;;80.03;44.65;;;;;;;;;;5052665;28;20044;-68
2022/12/30 03:46:28;;;;;;;87.85;46.33;;;;;;;;;;5052565;28;20044;-69
2022/12/30 03:48:56;;;;;;;84.35;45.47;;;;;;;;;;5052705;28;20041;-69
2022/12/30 03:51:24;;;;;;;88.18;43.47;;;;;;;;;;5052525;28;20110;-69
2022/12/30 03:53:51;;;;;;;73.05;39.38;;;;;;;;;;5052686;28;20037;-68
2022/12/30 03:56:19;;;;;;;72.32;39.40;;;;;;;;;;5052656;28;20041;-68
2022/12/30 03:58:46;;;;;;;83.10;43.42;;;;;;;;;;5052607;28;20486;-68
2022/12/30 04:01:13;;;;;;;86.40;45.65;;;;;;;;;;5052461;28;20095;-69
2022/12/30 04:03:41;;;;;;;87.88;46.15;;;;;;;;;;5052529;28;20045;-69
2022/12/30 04:06:09;;;;;;;82.38;43.70;;;;;;;;;;5052469;28;20037;-69
2022/12/30 04:08:36;;;;;;;93.97;47.20;;;;;;;;;;5051089;28;20041;-69
2022/12/30 04:11:04;;;;;;;86.80;45.60;;;;;;;;;;5052180;28;20044;-69
2022/12/30 04:13:31;;;;;;;86.75;46.05;;;;;;;;;;5052349;28;20100;-69
2022/12/30 04:15:59;;;;;;;88.07;45.67;;;;;;;;;;5052228;28;20045;-69
2022/12/30 04:18:26;;;;;;;87.18;45.90;;;;;;;;;;5052327;28;20037;-69
2022/12/30 04:20:54;;;;;;;93.40;48.72;;;;;;;;;;5054875;28;20051;-69
2022/12/30 04:23:21;;;;;;;103.22;52.40;;;;;;;;;;5056232;28;20105;-69
2022/12/30 04:25:49;;;;;;;115.95;54.53;;;;;;;;;;5056240;28;20124;-69
2022/12/30 04:28:16;;;;;;;108.55;56.92;;;;;;;;;;5056292;28;20102;-69
2022/12/30 04:30:43;;;;;;;121.18;61.85;;;;;;;;;;5056077;28;20051;-68
2022/12/30 04:33:11;;;;;;;107.90;55.47;;;;;;;;;;5056093;28;20053;-69
2022/12/30 04:35:38;;;;;;;118.90;60.10;;;;;;;;;;5054843;28;20115;-69
2022/12/30 04:38:06;;;;;;;112.22;57.47;;;;;;;;;;5056224;28;20045;-69
2022/12/30 04:40:33;;;;;;;121.57;62.28;;;;;;;;;;5056007;28;20043;-69
2022/12/30 04:43:01;;;;;;;108.57;59.78;;;;;;;;;;5055996;28;20124;-69
2022/12/30 04:45:28;;;;;;;104.95;55.90;;;;;;;;;;5056000;28;20041;-69
2022/12/30 04:47:56;;;;;;;109.95;55.70;;;;;;;;;;5055919;28;20498;-69
2022/12/30 04:50:23;;;;;;;108.28;53.92;;;;;;;;;;5054672;28;20052;-69
2022/12/30 04:52:51;;;;;;;109.05;56.55;;;;;;;;;;5055692;28;20059;-69
2022/12/30 04:55:18;;;;;;;103.88;53.45;;;;;;;;;;5055684;28;20041;-69
2022/12/30 04:57:46;;;;;;;104.40;53.70;;;;;;;;;;5054614;28;20491;-69
2022/12/30 05:00:14;;;;;;;108.82;56.30;;;;;;;;;;5055817;28;20127;-69
2022/12/30 05:02:41;;;;;;;106.50;56.63;;;;;;;;;;5054715;28;20509;-69
2022/12/30 05:05:09;;;;;;;130.13;61.25;;;;;;;;;;5056047;28;20044;-69
2022/12/30 05:07:36;;;;;;;144.52;74.28;;;;;;;;;;5055516;28;20056;-69
2022/12/30 05:10:04;;;;;;;146.57;78.90;;;;;;;;;;5055573;28;20041;-69
2022/12/30 05:12:31;;;;;;;133.45;69.55;;;;;;;;;;5054135;28;20403;-69
2022/12/30 05:14:59;;;;;;;122.53;63.20;;;;;;;;;;5055247;28;20040;-69
2022/12/30 05:17:26;;;;;;;115.53;57.63;;;;;;;;;;5055265;28;20036;-69
2022/12/30 05:19:54;;;;;;;172.00;78.38;;;;;;;;;;5055269;28;20045;-69
2022/12/30 05:22:21;;;;;;;190.27;90.55;;;;;;;;;;5055152;28;20095;-69
2022/12/30 05:27:35;;;;;;;118.53;62.75;;;;;;;;;;5055075;28;20045;-69
2022/12/30 05:30:03;;;;;;;125.22;64.35;;;;;;;;;;5054964;28;20040;-69
2022/12/30 05:32:30;;;;;;;136.57;70.75;;;;;;;;;;5054698;28;20487;-69
2022/12/30 05:34:58;;;;;;;137.63;69.00;;;;;;;;;;5054849;28;20053;-69
2022/12/30 05:37:25;;;;;;;149.15;75.20;;;;;;;;;;5055022;28;20052;-70
2022/12/30 05:39:53;;;;;;;139.27;72.07;;;;;;;;;;5055048;28;20041;-68
2022/12/30 05:42:20;;;;;;;148.30;74.10;;;;;;;;;;5053576;28;20036;-68
2022/12/30 05:44:47;;;;;;;134.65;68.65;;;;;;;;;;5054808;28;20047;-69
2022/12/30 05:47:15;;;;;;;137.00;72.25;;;;;;;;;;5054772;28;20056;-68
2022/12/30 05:49:42;;;;;;;133.95;64.70;;;;;;;;;;5054726;28;20048;-68
2022/12/30 05:52:11;;;;;;;120.25;61.97;;;;;;;;;;5053278;28;20136;-61
2022/12/30 05:54:39;;;;;;;124.55;62.70;;;;;;;;;;5053819;28;20041;-61
2022/12/30 05:57:06;;;;;;;117.13;61.42;;;;;;;;;;5054110;28;20044;-61
2022/12/30 05:59:34;;;;;;;125.45;63.65;;;;;;;;;;5054542;28;20040;-62
2022/12/30 06:02:01;;;;;;;154.20;76.57;;;;;;;;;;5054475;28;20075;-61
2022/12/30 06:04:29;;;;;;;152.05;83.90;;;;;;;;;;5054612;28;20041;-61
2022/12/30 06:06:56;;;;;;;138.30;69.65;;;;;;;;;;5054485;28;20124;-61
2022/12/30 06:09:24;;;;;;;116.10;63.65;;;;;;;;;;5054653;28;20036;-61
2022/12/30 06:11:51;;;;;;;142.35;75.13;;;;;;;;;;5054092;28;20043;-61
2022/12/30 06:14:20;;;;;;;126.05;67.13;;;;;;;;;;5054297;28;20037;-60
2022/12/30 06:16:48;;;;;;;132.38;66.43;;;;;;;;;;5054329;28;20082;-61
2022/12/30 06:19:16;;;;;;;128.82;66.43;;;;;;;;;;5054164;28;20037;-61
2022/12/30 06:21:43;;;;;;;132.00;66.53;;;;;;;;;;5054251;28;20044;-61
2022/12/30 06:24:11;;;;;;;139.98;72.15;;;;;;;;;;5053326;28;20071;-61
2022/12/30 06:26:38;;;;;;;156.93;84.18;;;;;;;;;;5054190;28;20087;-61
2022/12/30 06:29:06;;;;;;;144.00;76.72;;;;;;;;;;5057243;28;20041;-61
2022/12/30 06:31:33;;;;;;;155.60;80.18;;;;;;;;;;5054157;28;20418;-60
2022/12/30 06:34:01;;;;;;;158.82;83.30;;;;;;;;;;5053898;28;20080;-61
2022/12/30 06:36:28;;;;;;;160.18;87.93;;;;;;;;;;5053049;28;20099;-60
2022/12/30 06:38:56;;;;;;;147.60;85.13;;;;;;;;;;5042073;28;20091;-60
2022/12/30 06:41:23;;;;;;;139.48;76.18;;;;;;;;;;5035593;28;20045;-60
2022/12/30 06:43:50;;;;;;;137.27;73.28;;;;;;;;;;5045487;28;20127;-60
2022/12/30 06:46:18;;;;;;;143.30;79.75;;;;;;;;;;5041753;28;20037;-60
2022/12/30 06:48:45;;;;;;;155.85;87.80;;;;;;;;;;5051342;28;20065;-60
2022/12/30 06:51:13;;;;;;;144.88;74.95;;;;;;;;;;5053291;28;20072;-60
2022/12/30 06:53:40;;;;;;;132.55;69.88;;;;;;;;;;5050503;28;20044;-60
2022/12/30 06:56:08;;;;;;;140.27;74.03;;;;;;;;;;5041496;28;20570;-61
2022/12/30 06:58:36;;;;;;;137.73;72.00;;;;;;;;;;5053045;28;20095;-61
2022/12/30 07:01:03;;;;;;;156.80;79.65;;;;;;;;;;5053546;28;20041;-62
2022/12/30 07:03:31;;;;;;;154.25;82.63;;;;;;;;;;5053066;28;20474;-60
2022/12/30 07:05:58;;;;;;;167.50;86.35;;;;;;;;;;5051861;28;20372;-63
2022/12/30 07:08:26;;;;;;;153.10;84.50;;;;;;;;;;5052577;28;20067;-64
2022/12/30 07:10:54;;;;;;;135.02;72.50;;;;;;;;;;5048198;28;20033;-63
2022/12/30 07:13:21;;;;;;;104.32;58.53;;;;;;;;;;5042411;28;20045;-63
2022/12/30 07:15:49;;;;;;;102.40;56.45;;;;;;;;;;5052803;28;20106;-63
2022/12/30 07:18:16;;;;;;;118.80;59.30;;;;;;;;;;5051506;28;20055;-64
2022/12/30 07:20:44;;;;;;;103.32;58.20;;;;;;;;;;5052644;28;20041;-63
2022/12/30 07:23:12;;;;;;;105.97;58.75;;;;;;;;;;5052746;28;20040;-64
2022/12/30 07:25:39;;;;;;;102.40;56.40;;;;;;;;;;5052633;28;20095;-64
2022/12/30 07:28:07;;;;;;;96.85;54.45;;;;;;;;;;5051296;28;20029;-65
2022/12/30 07:30:34;;;;;;;92.50;53.08;;;;;;;;;;5052487;28;20127;-65
2022/12/30 07:33:01;;;;;;;99.10;55.38;;;;;;;;;;5052118;28;20060;-65
2022/12/30 07:35:29;;;;;;;108.28;61.33;;;;;;;;;;5052536;28;20037;-65
2022/12/30 07:37:57;;;;;;;100.50;56.08;;;;;;;;;;5052433;28;20041;-65
2022/12/30 07:40:24;;;;;;;97.20;54.75;;;;;;;;;;5052441;28;20135;-65
2022/12/30 07:42:52;;;;;;;115.00;56.90;;;;;;;;;;5052218;28;20441;-65
2022/12/30 07:45:20;;;;;;;109.57;56.92;;;;;;;;;;5045279;28;20033;-65
2022/12/30 07:47:47;;;;;;;118.25;59.78;;;;;;;;;;5050756;28;20076;-62
2022/12/30 07:50:15;;;;;;;110.70;61.28;;;;;;;;;;5032280;28;20483;-65
2022/12/30 07:52:42;;;;;;;111.22;59.25;;;;;;;;;;5032519;28;20048;-64
2022/12/30 07:55:09;;;;;;;112.50;58.50;;;;;;;;;;5032169;28;20495;-64
2022/12/30 07:57:37;;;;;;;115.95;62.92;;;;;;;;;;5032239;28;20539;-64
2022/12/30 08:00:05;;;;;;;86.28;46.90;;;;;;;;;;5032095;28;20037;-64
2022/12/30 08:02:39;;;;;;;83.45;46.13;;;;;;;;;;5032587;28;20081;-63
2022/12/30 08:05:07;;;;;;;79.63;46.65;;;;;;;;;;5032172;28;20057;-64
2022/12/30 08:07:36;;;;;;;85.03;49.42;;;;;;;;;;5032244;28;20037;-63
2022/12/30 08:10:04;;;;;;;82.60;49.55;;;;;;;;;;5032213;28;20129;-64
2022/12/30 08:12:31;;;;;;;91.65;52.88;;;;;;;;;;5034400;28;20477;-64
2022/12/30 08:14:59;;;;;;;94.05;52.42;;;;;;;;;;5032029;28;20088;-64
2022/12/30 08:17:27;;;;;;;83.95;45.60;;;;;;;;;;5037370;28;20045;-64
2022/12/30 08:19:55;;;;;;;86.10;45.58;;;;;;;;;;5048811;28;20065;-66
2022/12/30 08:22:22;;;;;;;102.25;55.60;;;;;;;;;;5045581;28;20055;-64
2022/12/30 08:24:50;;;;;;;84.03;48.90;;;;;;;;;;5045730;28;20041;-64
2022/12/30 08:27:17;;;;;;;80.50;45.67;;;;;;;;;;5050423;28;20041;-64
2022/12/30 08:29:45;;;;;;;77.43;45.47;;;;;;;;;;5031841;28;20410;-64
2022/12/30 08:32:12;;;;;;;76.57;45.40;;;;;;;;;;5037627;28;20038;-65
2022/12/30 08:34:40;;;;;;;81.90;47.92;;;;;;;;;;5047633;28;20052;-64
2022/12/30 08:37:07;;;;;;;71.22;43.17;;;;;;;;;;5049743;28;20048;-65
2022/12/30 08:39:34;;;;;;;68.70;38.92;;;;;;;;;;5041647;28;20467;-64
2022/12/30 08:42:02;;;;;;;55.38;34.97;;;;;;;;;;5041988;28;20570;-66
2022/12/30 08:44:30;;;;;;;59.22;35.38;;;;;;;;;;5051448;28;20033;-64
2022/12/30 08:47:03;;;;;;;58.40;35.35;;;;;;;;;;5050313;28;20118;-64
2022/12/30 08:49:30;;;;;;;57.60;33.45;;;;;;;;;;5050945;28;20041;-65
2022/12/30 08:51:58;;;;;;;60.78;36.58;;;;;;;;;;5051719;28;20053;-64
2022/12/30 08:54:25;;;;;;;65.38;38.50;;;;;;;;;;5051847;28;20469;-64
2022/12/30 08:56:53;;;;;;;58.95;35.58;;;;;;;;;;5051836;28;20047;-64
2022/12/30 08:59:20;;;;;;;56.00;33.53;;;;;;;;;;5051848;28;20045;-64
2022/12/30 09:01:48;;;;;;;51.35;32.22;;;;;;;;;;5052051;28;20394;-64
2022/12/30 09:04:17;;;;;;;53.75;32.17;;;;;;;;;;5051783;28;20095;-64
2022/12/30 09:06:44;;;;;;;55.03;31.10;;;;;;;;;;5053845;28;20459;-64
2022/12/30 09:09:13;;;;;;;52.78;32.92;;;;;;;;;;5037657;28;20465;-64
2022/12/30 09:11:41;;;;;;;59.78;34.20;;;;;;;;;;5055321;28;20045;-64
2022/12/30 09:14:09;;;;;;;56.67;34.47;;;;;;;;;;5055218;28;20071;-64
2022/12/30 09:16:37;;;;;;;50.05;30.52;;;;;;;;;;5055390;28;20037;-64
2022/12/30 09:19:04;;;;;;;54.03;32.55;;;;;;;;;;5054003;28;20095;-65
2022/12/30 09:21:32;;;;;;;48.72;31.23;;;;;;;;;;5055058;28;20133;-65
2022/12/30 09:23:59;;;;;;;51.53;31.95;;;;;;;;;;5055157;28;20029;-65
2022/12/30 09:26:28;;;;;;;52.50;31.90;;;;;;;;;;5055218;28;20040;-65
2022/12/30 09:28:56;;;;;;;51.78;32.95;;;;;;;;;;5056641;28;20049;-65
2022/12/30 09:31:23;;;;;;;53.10;34.28;;;;;;;;;;5055224;28;20099;-65
2022/12/30 09:33:51;;;;;;;49.22;31.63;;;;;;;;;;5054939;28;20064;-65
2022/12/30 09:36:19;;;;;;;50.95;31.17;;;;;;;;;;5052593;28;20037;-65
2022/12/30 09:38:46;;;;;;;51.58;31.33;;;;;;;;;;5051254;28;20099;-66
2022/12/30 09:44:35;;;;;;;50.72;31.67;;;;;;;;;;5039545;28;20041;-65
2022/12/30 09:47:15;;;;;;;48.70;30.35;;;;;;;;;;5051360;28;20061;-66
2022/12/30 09:50:20;;;;;;;52.10;32.38;;;;;;;;;;5037295;28;20049;-66
2022/12/30 09:52:47;;;;;;;45.17;30.10;;;;;;;;;;5025015;28;20068;-66
2022/12/30 09:55:28;;;;;;;44.78;27.40;;;;;;;;;;5039143;28;20079;-66
2022/12/30 09:57:58;;;;;;;44.80;28.58;;;;;;;;;;5052238;28;20106;-66
2022/12/30 10:00:29;;;;;;;48.88;30.42;;;;;;;;;;5053246;28;20033;-66
2022/12/30 10:03:07;;;;;;;46.83;30.70;;;;;;;;;;5053351;28;20039;-66
2022/12/30 10:06:08;;;;;;;47.05;30.80;;;;;;;;;;5053430;28;20047;-66
2022/12/30 10:08:54;;;;;;;48.17;31.10;;;;;;;;;;5053185;28;20044;-66
2022/12/30 10:11:30;;;;;;;48.97;31.75;;;;;;;;;;5044048;28;20092;-67
2022/12/30 10:14:07;;;;;;;46.40;30.38;;;;;;;;;;5049777;28;20064;-66
2022/12/30 10:16:46;;;;;;;47.38;29.55;;;;;;;;;;5051790;28;20037;-67
2022/12/30 10:19:16;;;;;;;45.13;30.10;;;;;;;;;;5052141;28;20060;-65
2022/12/30 10:21:54;;;;;;;45.53;29.27;;;;;;;;;;5052733;28;20040;-65
2022/12/30 10:24:25;;;;;;;47.63;30.38;;;;;;;;;;5049841;28;20037;-66
2022/12/30 10:26:54;;;;;;;46.75;31.17;;;;;;;;;;5041714;28;20068;-66
2022/12/30 10:29:34;;;;;;;48.72;31.15;;;;;;;;;;5033091;28;20105;-65
2022/12/30 10:32:06;;;;;;;48.38;31.45;;;;;;;;;;5033097;28;20128;-66
2022/12/30 10:34:34;;;;;;;44.58;29.98;;;;;;;;;;5032561;28;20080;-66
2022/12/30 10:37:03;;;;;;;46.80;31.10;;;;;;;;;;5031721;28;20044;-66
2022/12/30 10:39:38;;;;;;;46.60;30.35;;;;;;;;;;5032596;28;20065;-65
2022/12/30 10:42:06;;;;;;;;;;;;;;;;;;5048639;28;20057;-65
2022/12/30 10:44:35;;;;;;;45.13;28.13;;;;;;;;;;5051120;28;20480;-65
2022/12/30 10:47:09;;;;;;;43.50;28.08;;;;;;;;;;5040704;28;20044;-65
2022/12/30 10:49:45;;;;;;;45.72;28.83;;;;;;;;;;5051123;28;20055;-65
2022/12/30 10:52:13;;;;;;;49.78;30.95;;;;;;;;;;5052588;28;20483;-66
2022/12/30 10:54:41;;;;;;;46.38;30.02;;;;;;;;;;5052252;28;20053;-66
2022/12/30 10:57:20;;;;;;;45.28;29.45;;;;;;;;;;5051403;28;20376;-66
2022/12/30 10:59:48;;;;;;;43.05;29.33;;;;;;;;;;5051995;28;20049;-66
2022/12/30 11:02:16;;;;;;;43.95;28.55;;;;;;;;;;5052215;28;20041;-66
2022/12/30 11:04:44;;;;;;;45.65;29.13;;;;;;;;;;5052166;28;20414;-66
2022/12/30 11:07:14;;;;;;;47.20;28.70;;;;;;;;;;5051805;28;20032;-66
2022/12/30 11:09:41;;;;;;;43.55;27.42;;;;;;;;;;5051995;28;20076;-66
2022/12/30 11:15:12;;;;;;;40.58;27.98;;;;;;;;;;5047404;28;20095;-65
2022/12/30 11:17:53;;;;;;;43.70;28.45;;;;;;;;;;5050594;28;20057;-65
2022/12/30 11:20:33;;;;;;;46.33;29.85;;;;;;;;;;5040308;28;20061;-64
2022/12/30 11:23:01;;;;;;;45.90;29.30;;;;;;;;;;5051397;28;20037;-65
2022/12/30 11:25:35;;;;;;;47.40;28.92;;;;;;;;;;5053320;28;20371;-65
2022/12/30 11:28:08;;;;;;;41.20;28.63;;;;;;;;;;5049786;28;20139;-64
2022/12/30 11:30:37;;;;;;;45.53;29.10;;;;;;;;;;5051092;28;20048;-65
2022/12/30 11:33:06;;;;;;;52.85;32.30;;;;;;;;;;5052074;28;20053;-65
2022/12/30 11:35:42;;;;;;;46.08;28.92;;;;;;;;;;5052471;28;20094;-65
2022/12/30 11:38:29;;;;;;;42.75;27.70;;;;;;;;;;5060682;28;20044;-65
2022/12/30 11:40:57;;;;;;;39.00;26.15;;;;;;;;;;5059849;28;20052;-65
2022/12/30 11:43:24;;;;;;;43.92;27.17;;;;;;;;;;5053033;28;20124;-65
2022/12/30 11:45:57;;;;;;;43.58;30.52;;;;;;;;;;5052471;28;20045;-64
2022/12/30 11:48:32;;;;;;;45.17;27.30;;;;;;;;;;5052513;28;20045;-65
2022/12/30 11:51:02;;;;;;;45.60;28.88;;;;;;;;;;5052403;28;20055;-65
2022/12/30 11:53:31;;;;;;;45.95;29.92;;;;;;;;;;5052471;28;20048;-65
2022/12/30 11:55:59;;;;;;;55.08;34.30;;;;;;;;;;5052529;28;20044;-65
2022/12/30 11:58:26;;;;;;;42.17;28.45;;;;;;;;;;5052174;28;20090;-61
2022/12/30 12:00:58;;;;;;;42.08;27.30;;;;;;;;;;5052387;28;20052;-65
2022/12/30 12:03:27;;;;;;;51.00;31.73;;;;;;;;;;5052295;28;20044;-65
2022/12/30 12:06:06;;;;;;;41.55;28.25;;;;;;;;;;5065865;28;20517;-66
2022/12/30 12:08:36;;;;;;;39.25;27.13;;;;;;;;;;5072261;28;20072;-68
2022/12/30 12:11:06;;;;;;;39.85;27.17;;;;;;;;;;5072415;28;20045;-67
2022/12/30 12:13:36;;;;;;;40.65;26.92;;;;;;;;;;5071075;28;20163;-68
2022/12/30 12:16:05;;;;;;;42.42;28.05;;;;;;;;;;5072327;28;20036;-67
2022/12/30 12:18:46;;;;;;;37.03;26.27;;;;;;;;;;5072069;28;20041;-67
2022/12/30 12:21:16;;;;;;;33.83;25.15;;;;;;;;;;5054089;28;20506;-68
2022/12/30 12:24:02;;;;;;;41.30;26.77;;;;;;;;;;5051802;28;20465;-67
2022/12/30 12:26:32;;;;;;;44.50;28.98;;;;;;;;;;5052045;28;20033;-68
2022/12/30 12:29:00;;;;;;;34.40;24.30;;;;;;;;;;5052019;28;20076;-68
2022/12/30 12:31:28;;;;;;;37.55;25.20;;;;;;;;;;5052541;28;20068;-68
2022/12/30 12:34:06;;;;;;;39.75;26.20;;;;;;;;;;5051860;28;20106;-68
2022/12/30 12:36:40;;;;;;;38.72;26.52;;;;;;;;;;5051543;28;20445;-68
2022/12/30 12:39:11;;;;;;;35.40;24.67;;;;;;;;;;5051440;28;20119;-68
2022/12/30 12:41:58;;;;;;;38.08;25.63;;;;;;;;;;5053787;28;20056;-68
2022/12/30 12:44:43;;;;;;;37.03;24.98;;;;;;;;;;5055840;28;20071;-67
2022/12/30 12:47:17;;;;;;;36.83;24.88;;;;;;;;;;5054754;28;20049;-68
2022/12/30 12:50:03;;;;;;;36.25;25.80;;;;;;;;;;5056013;28;20505;-68
2022/12/30 12:52:30;;;;;;;34.03;23.70;;;;;;;;;;5055779;28;20127;-68
2022/12/30 12:55:16;;;;;;;35.63;24.23;;;;;;;;;;5055871;28;20438;-67
2022/12/30 12:57:44;;;;;;;35.03;25.40;;;;;;;;;;5055614;28;20398;-67
2022/12/30 13:00:12;;;;;;;37.63;25.05;;;;;;;;;;5055660;28;20094;-67
2022/12/30 13:02:53;;;;;;;38.50;25.15;;;;;;;;;;5055706;28;20495;-67
2022/12/30 13:05:28;;;;;;;37.30;25.00;;;;;;;;;;5055660;28;20118;-68
2022/12/30 13:08:18;;;;;;;39.15;26.85;;;;;;;;;;5055938;28;20118;-67
2022/12/30 13:10:58;;;;;;;48.55;30.05;;;;;;;;;;5055571;28;20551;-67
2022/12/30 13:13:50;;;;;;;37.42;26.80;;;;;;;;;;5055463;28;20041;-67
2022/12/30 13:16:19;;;;;;;39.63;28.92;;;;;;;;;;5055656;28;20120;-67
2022/12/30 13:18:48;;;;;;;40.28;26.85;;;;;;;;;;5055243;28;20087;-67
2022/12/30 13:21:20;;;;;;;40.20;27.33;;;;;;;;;;5055334;28;20503;-67
2022/12/30 13:23:50;;;;;;;38.03;27.02;;;;;;;;;;5055440;28;20049;-67
2022/12/30 13:26:20;;;;;;;39.35;27.77;;;;;;;;;;5055274;28;20487;-68
2022/12/30 13:28:50;;;;;;;38.25;27.42;;;;;;;;;;5055120;28;20045;-67
2022/12/30 13:31:26;;;;;;;36.50;25.90;;;;;;;;;;5053670;28;20043;-67
2022/12/30 13:34:06;;;;;;;37.90;25.88;;;;;;;;;;5054735;28;20552;-67
2022/12/30 13:36:43;;;;;;;38.75;27.10;;;;;;;;;;5054555;28;20041;-67
2022/12/30 13:39:23;;;;;;;36.08;24.67;;;;;;;;;;5053228;28;20049;-68
2022/12/30 13:42:02;;;;;;;36.22;25.35;;;;;;;;;;5059295;28;20116;-67
2022/12/30 13:44:37;;;;;;;37.75;26.70;;;;;;;;;;5054638;28;20043;-68
2022/12/30 13:47:05;;;;;;;39.88;25.60;;;;;;;;;;5054475;28;20049;-67
2022/12/30 13:49:35;;;;;;;36.88;24.77;;;;;;;;;;5054636;28;20076;-68
2022/12/30 13:52:04;;;;;;;34.88;24.13;;;;;;;;;;5054399;28;21007;-68
2022/12/30 13:54:32;;;;;;;37.75;24.50;;;;;;;;;;5054574;28;20124;-67
2022/12/30 13:57:01;;;;;;;32.47;22.67;;;;;;;;;;5054616;28;20091;-68
2022/12/30 13:59:33;;;;;;;32.70;22.95;;;;;;;;;;5053346;28;20198;-66
2022/12/30 14:02:19;;;;;;;37.17;23.23;;;;;;;;;;5054315;28;20048;-67
2022/12/30 14:04:49;;;;;;;36.75;23.35;;;;;;;;;;5061959;28;20037;-67
2022/12/30 14:07:36;;;;;;;38.70;23.63;;;;;;;;;;5046339;28;20047;-67
2022/12/30 14:10:17;;;;;;;34.13;22.95;;;;;;;;;;5049834;28;20127;-67
2022/12/30 14:12:45;;;;;;;36.38;22.67;;;;;;;;;;5049775;28;20053;-66
2022/12/30 14:15:39;;;;;;;35.97;23.80;;;;;;;;;;5037550;28;20486;-66
2022/12/30 14:18:14;;;;;;;39.67;23.33;;;;;;;;;;5041221;28;20096;-67
2022/12/30 14:20:43;;;;;;;36.40;24.20;;;;;;;;;;5050805;28;20522;-67
2022/12/30 14:23:29;;;;;;;37.60;25.08;;;;;;;;;;5045283;28;20048;-67
2022/12/30 14:26:17;;;;;;;41.17;27.15;;;;;;;;;;5050434;28;20055;-67
2022/12/30 14:28:45;;;;;;;34.75;24.50;;;;;;;;;;5051200;28;20071;-67
2022/12/30 14:31:23;;;;;;;39.55;24.63;;;;;;;;;;5052499;28;20037;-67
2022/12/30 14:33:51;;;;;;;34.58;22.88;;;;;;;;;;5034969;28;20404;-66
2022/12/30 14:36:19;;;;;;;33.97;24.17;;;;;;;;;;5050283;28;20483;-67
2022/12/30 14:38:55;;;;;;;32.08;22.45;;;;;;;;;;5045550;28;20045;-67
2022/12/30 14:41:25;;;;;;;38.25;23.60;;;;;;;;;;5033515;28;20398;-67
2022/12/30 14:43:57;;;;;;;38.38;25.65;;;;;;;;;;5051421;28;20533;-67
2022/12/30 14:46:36;;;;;;;39.72;24.90;;;;;;;;;;5053458;28;20086;-67
2022/12/30 14:49:20;;;;;;;36.15;23.17;;;;;;;;;;5053258;28;20044;-67
2022/12/30 14:51:57;;;;;;;37.45;23.58;;;;;;;;;;5053097;28;20041;-68
2022/12/30 14:54:30;;;;;;;33.25;22.42;;;;;;;;;;5039754;28;20047;-67
2022/12/30 14:57:07;;;;;;;40.20;24.63;;;;;;;;;;5053234;28;20037;-67
2022/12/30 14:59:55;;;;;;;42.70;27.85;;;;;;;;;;5049956;28;20044;-66
2022/12/30 15:02:22;;;;;;;50.00;29.48;;;;;;;;;;5032984;28;20045;-66
2022/12/30 15:04:51;;;;;;;45.90;31.98;;;;;;;;;;5032385;28;20445;-66
2022/12/30 15:07:26;;;;;;;60.70;35.17;;;;;;;;;;5031833;28;20044;-67
2022/12/30 15:09:54;;;;;;;88.53;48.42;;;;;;;;;;5045602;28;20510;-67
2022/12/30 15:12:23;;;;;;;68.57;38.28;;;;;;;;;;5043325;28;20033;-66
2022/12/30 15:14:51;;;;;;;57.42;34.47;;;;;;;;;;5032813;28;20044;-67
2022/12/30 15:17:28;;;;;;;56.70;34.70;;;;;;;;;;5045389;28;20037;-66
2022/12/30 15:19:55;;;;;;;56.65;33.53;;;;;;;;;;5052767;28;20059;-66
2022/12/30 15:22:24;;;;;;;49.75;32.28;;;;;;;;;;5052807;28;20112;-67
2022/12/30 15:24:52;;;;;;;54.08;33.38;;;;;;;;;;5052843;28;20067;-66
2022/12/30 15:27:22;;;;;;;61.45;36.28;;;;;;;;;;5052695;28;20162;-66
2022/12/30 15:29:50;;;;;;;71.32;42.55;;;;;;;;;;5052421;28;20068;-67
2022/12/30 15:32:21;;;;;;;76.53;44.97;;;;;;;;;;5052751;28;20490;-66